sensor_id;sensor_type;location;lat;lon;timestamp;P1;durP1;ratioP1;P2;durP2;ratioP2
25049;SDS011;13046;49.814;9.918;2023-12-04T00:02:13;62.25;;;31.20;;
25049;SDS011;13046;49.814;9.918;2023-12-04T00:04:39;66.20;;;35.15;;
25049;SDS011;13046;49.814;9.918;2023-12-04T00:07:06;61.00;;;33.00;;
25049;SDS011;13046;49.814;9.918;2023-12-04T00:09:32;62.75;;;32.92;;
25049;SDS011;13046;49.814;9.918;2023-12-04T00:11:58;59.00;;;34.30;;
25049;SDS011;13046;49.814;9.918;2023-12-04T00:14:24;59.72;;;33.22;;
25049;SDS011;13046;49.814;9.918;2023-12-04T00:16:50;55.53;;;32.22;;
25049;SDS011;13046;49.814;9.918;2023-12-04T00:19:16;57.95;;;33.85;;
25049;SDS011;13046;49.814;9.918;2023-12-04T00:21:42;65.78;;;36.00;;
25049;SDS011;13046;49.814;9.918;2023-12-04T00:24:08;62.15;;;33.35;;
25049;SDS011;13046;49.814;9.918;2023-12-04T00:26:34;61.03;;;32.33;;
25049;SDS011;13046;49.814;9.918;2023-12-04T00:29:00;62.97;;;34.83;;
25049;SDS011;13046;49.814;9.918;2023-12-04T00:33:53;68.78;;;36.13;;
25049;SDS011;13046;49.814;9.918;2023-12-04T00:36:19;68.22;;;38.67;;
25049;SDS011;13046;49.814;9.918;2023-12-04T00:38:45;67.38;;;36.22;;
25049;SDS011;13046;49.814;9.918;2023-12-04T00:41:11;68.78;;;35.75;;
25049;SDS011;13046;49.814;9.918;2023-12-04T00:43:37;58.50;;;34.05;;
25049;SDS011;13046;49.814;9.918;2023-12-04T00:46:04;57.35;;;33.47;;
25049;SDS011;13046;49.814;9.918;2023-12-04T00:48:30;61.33;;;34.45;;
25049;SDS011;13046;49.814;9.918;2023-12-04T00:50:57;58.70;;;32.15;;
25049;SDS011;13046;49.814;9.918;2023-12-04T00:53:23;56.67;;;36.47;;
25049;SDS011;13046;49.814;9.918;2023-12-04T00:55:49;58.65;;;33.35;;
25049;SDS011;13046;49.814;9.918;2023-12-04T00:58:15;66.30;;;34.15;;
25049;SDS011;13046;49.814;9.918;2023-12-04T01:00:41;61.90;;;35.78;;
25049;SDS011;13046;49.814;9.918;2023-12-04T01:03:08;64.72;;;35.10;;
25049;SDS011;13046;49.814;9.918;2023-12-04T01:05:34;57.95;;;31.90;;
25049;SDS011;13046;49.814;9.918;2023-12-04T01:08:00;62.13;;;34.38;;
25049;SDS011;13046;49.814;9.918;2023-12-04T01:10:26;56.50;;;33.85;;
25049;SDS011;13046;49.814;9.918;2023-12-04T01:12:52;63.47;;;35.20;;
25049;SDS011;13046;49.814;9.918;2023-12-04T01:15:18;58.58;;;32.20;;
25049;SDS011;13046;49.814;9.918;2023-12-04T01:17:44;58.90;;;34.58;;
25049;SDS011;13046;49.814;9.918;2023-12-04T01:20:10;57.72;;;32.33;;
25049;SDS011;13046;49.814;9.918;2023-12-04T01:22:36;64.07;;;33.30;;
25049;SDS011;13046;49.814;9.918;2023-12-04T01:25:02;52.92;;;30.23;;
25049;SDS011;13046;49.814;9.918;2023-12-04T01:27:29;56.78;;;31.17;;
25049;SDS011;13046;49.814;9.918;2023-12-04T01:29:55;57.33;;;30.35;;
25049;SDS011;13046;49.814;9.918;2023-12-04T01:32:21;65.22;;;34.55;;
25049;SDS011;13046;49.814;9.918;2023-12-04T01:34:47;60.38;;;32.38;;
25049;SDS011;13046;49.814;9.918;2023-12-04T01:37:13;63.95;;;34.15;;
25049;SDS011;13046;49.814;9.918;2023-12-04T01:39:39;59.45;;;33.00;;
25049;SDS011;13046;49.814;9.918;2023-12-04T01:42:05;55.10;;;30.58;;
25049;SDS011;13046;49.814;9.918;2023-12-04T01:44:31;67.43;;;34.10;;
25049;SDS011;13046;49.814;9.918;2023-12-04T01:46:57;58.75;;;33.13;;
25049;SDS011;13046;49.814;9.918;2023-12-04T01:49:23;53.72;;;30.27;;
25049;SDS011;13046;49.814;9.918;2023-12-04T01:51:49;59.83;;;31.60;;
25049;SDS011;13046;49.814;9.918;2023-12-04T01:54:16;60.90;;;31.23;;
25049;SDS011;13046;49.814;9.918;2023-12-04T01:56:42;52.55;;;29.65;;
25049;SDS011;13046;49.814;9.918;2023-12-04T01:59:09;53.45;;;30.17;;
25049;SDS011;13046;49.814;9.918;2023-12-04T02:01:35;59.58;;;31.90;;
25049;SDS011;13046;49.814;9.918;2023-12-04T02:04:02;55.83;;;31.73;;
25049;SDS011;13046;49.814;9.918;2023-12-04T02:06:28;61.97;;;30.55;;
25049;SDS011;13046;49.814;9.918;2023-12-04T02:08:54;55.85;;;31.35;;
25049;SDS011;13046;49.814;9.918;2023-12-04T02:11:22;57.63;;;31.77;;
25049;SDS011;13046;49.814;9.918;2023-12-04T02:13:48;58.10;;;32.83;;
25049;SDS011;13046;49.814;9.918;2023-12-04T02:16:14;51.30;;;29.70;;
25049;SDS011;13046;49.814;9.918;2023-12-04T02:18:40;54.72;;;30.65;;
25049;SDS011;13046;49.814;9.918;2023-12-04T02:21:07;58.58;;;30.38;;
25049;SDS011;13046;49.814;9.918;2023-12-04T02:23:33;55.88;;;29.33;;
25049;SDS011;13046;49.814;9.918;2023-12-04T02:25:59;55.03;;;31.13;;
25049;SDS011;13046;49.814;9.918;2023-12-04T02:28:29;59.45;;;31.67;;
25049;SDS011;13046;49.814;9.918;2023-12-04T02:30:56;53.00;;;29.15;;
25049;SDS011;13046;49.814;9.918;2023-12-04T02:33:24;55.55;;;31.20;;
25049;SDS011;13046;49.814;9.918;2023-12-04T02:35:51;51.42;;;30.20;;
25049;SDS011;13046;49.814;9.918;2023-12-04T02:38:18;59.20;;;29.85;;
25049;SDS011;13046;49.814;9.918;2023-12-04T02:40:44;58.70;;;31.63;;
25049;SDS011;13046;49.814;9.918;2023-12-04T02:43:10;56.10;;;31.13;;
25049;SDS011;13046;49.814;9.918;2023-12-04T02:45:37;51.08;;;29.90;;
25049;SDS011;13046;49.814;9.918;2023-12-04T02:48:03;56.78;;;28.73;;
25049;SDS011;13046;49.814;9.918;2023-12-04T02:50:29;54.08;;;27.35;;
25049;SDS011;13046;49.814;9.918;2023-12-04T02:52:55;61.40;;;32.83;;
25049;SDS011;13046;49.814;9.918;2023-12-04T02:55:21;53.20;;;28.92;;
25049;SDS011;13046;49.814;9.918;2023-12-04T02:57:47;49.15;;;29.52;;
25049;SDS011;13046;49.814;9.918;2023-12-04T03:00:13;56.75;;;31.25;;
25049;SDS011;13046;49.814;9.918;2023-12-04T03:02:39;51.50;;;29.48;;
25049;SDS011;13046;49.814;9.918;2023-12-04T03:05:05;49.95;;;28.52;;
25049;SDS011;13046;49.814;9.918;2023-12-04T03:07:31;56.33;;;29.92;;
25049;SDS011;13046;49.814;9.918;2023-12-04T03:09:57;55.08;;;29.80;;
25049;SDS011;13046;49.814;9.918;2023-12-04T03:12:24;49.72;;;29.63;;
25049;SDS011;13046;49.814;9.918;2023-12-04T03:14:50;53.03;;;30.58;;
25049;SDS011;13046;49.814;9.918;2023-12-04T03:17:16;51.47;;;30.70;;
25049;SDS011;13046;49.814;9.918;2023-12-04T03:19:42;53.30;;;30.98;;
25049;SDS011;13046;49.814;9.918;2023-12-04T03:22:08;50.13;;;30.13;;
25049;SDS011;13046;49.814;9.918;2023-12-04T03:24:34;52.58;;;29.90;;
25049;SDS011;13046;49.814;9.918;2023-12-04T03:27:00;51.17;;;31.30;;
25049;SDS011;13046;49.814;9.918;2023-12-04T03:29:26;51.88;;;29.42;;
25049;SDS011;13046;49.814;9.918;2023-12-04T03:31:52;56.03;;;31.92;;
25049;SDS011;13046;49.814;9.918;2023-12-04T03:34:18;47.42;;;27.77;;
25049;SDS011;13046;49.814;9.918;2023-12-04T03:36:44;55.42;;;32.80;;
25049;SDS011;13046;49.814;9.918;2023-12-04T03:39:10;50.03;;;31.20;;
25049;SDS011;13046;49.814;9.918;2023-12-04T03:41:36;51.75;;;30.23;;
25049;SDS011;13046;49.814;9.918;2023-12-04T03:44:03;50.40;;;28.65;;
25049;SDS011;13046;49.814;9.918;2023-12-04T03:46:29;50.10;;;27.63;;
25049;SDS011;13046;49.814;9.918;2023-12-04T03:48:55;51.30;;;30.10;;
25049;SDS011;13046;49.814;9.918;2023-12-04T03:51:21;51.78;;;32.60;;
25049;SDS011;13046;49.814;9.918;2023-12-04T03:53:47;69.30;;;38.60;;
25049;SDS011;13046;49.814;9.918;2023-12-04T03:56:13;60.22;;;35.72;;
25049;SDS011;13046;49.814;9.918;2023-12-04T03:58:39;55.28;;;32.17;;
25049;SDS011;13046;49.814;9.918;2023-12-04T04:01:05;53.90;;;33.92;;
25049;SDS011;13046;49.814;9.918;2023-12-04T04:03:31;48.67;;;29.40;;
25049;SDS011;13046;49.814;9.918;2023-12-04T04:05:57;51.70;;;31.67;;
25049;SDS011;13046;49.814;9.918;2023-12-04T04:08:24;49.78;;;28.92;;
25049;SDS011;13046;49.814;9.918;2023-12-04T04:10:50;50.75;;;29.45;;
25049;SDS011;13046;49.814;9.918;2023-12-04T04:13:16;52.38;;;28.80;;
25049;SDS011;13046;49.814;9.918;2023-12-04T04:15:42;49.85;;;29.50;;
25049;SDS011;13046;49.814;9.918;2023-12-04T04:18:08;50.58;;;28.77;;
25049;SDS011;13046;49.814;9.918;2023-12-04T04:20:34;46.63;;;27.50;;
25049;SDS011;13046;49.814;9.918;2023-12-04T04:23:00;50.40;;;31.23;;
25049;SDS011;13046;49.814;9.918;2023-12-04T04:25:26;52.72;;;29.73;;
25049;SDS011;13046;49.814;9.918;2023-12-04T04:27:52;49.35;;;31.13;;
25049;SDS011;13046;49.814;9.918;2023-12-04T04:30:18;55.00;;;30.90;;
25049;SDS011;13046;49.814;9.918;2023-12-04T04:32:44;52.42;;;31.58;;
25049;SDS011;13046;49.814;9.918;2023-12-04T04:35:10;51.72;;;29.40;;
25049;SDS011;13046;49.814;9.918;2023-12-04T04:37:37;56.30;;;30.38;;
25049;SDS011;13046;49.814;9.918;2023-12-04T04:40:03;49.53;;;29.85;;
25049;SDS011;13046;49.814;9.918;2023-12-04T04:42:29;52.40;;;29.50;;
25049;SDS011;13046;49.814;9.918;2023-12-04T04:44:55;78.40;;;42.20;;
25049;SDS011;13046;49.814;9.918;2023-12-04T04:47:21;50.17;;;30.83;;
25049;SDS011;13046;49.814;9.918;2023-12-04T04:49:47;48.10;;;28.27;;
25049;SDS011;13046;49.814;9.918;2023-12-04T04:52:13;51.28;;;30.20;;
25049;SDS011;13046;49.814;9.918;2023-12-04T04:54:39;54.50;;;31.25;;
25049;SDS011;13046;49.814;9.918;2023-12-04T04:57:05;53.00;;;31.95;;
25049;SDS011;13046;49.814;9.918;2023-12-04T04:59:33;51.10;;;28.48;;
25049;SDS011;13046;49.814;9.918;2023-12-04T05:01:59;46.17;;;28.67;;
25049;SDS011;13046;49.814;9.918;2023-12-04T05:04:25;52.13;;;30.23;;
25049;SDS011;13046;49.814;9.918;2023-12-04T05:06:51;48.63;;;30.80;;
25049;SDS011;13046;49.814;9.918;2023-12-04T05:09:17;52.50;;;29.65;;
25049;SDS011;13046;49.814;9.918;2023-12-04T05:11:43;53.83;;;30.25;;
25049;SDS011;13046;49.814;9.918;2023-12-04T05:14:09;53.05;;;29.60;;
25049;SDS011;13046;49.814;9.918;2023-12-04T05:16:35;48.97;;;29.58;;
25049;SDS011;13046;49.814;9.918;2023-12-04T05:19:02;46.20;;;28.42;;
25049;SDS011;13046;49.814;9.918;2023-12-04T05:21:28;46.38;;;29.08;;
25049;SDS011;13046;49.814;9.918;2023-12-04T05:23:54;49.45;;;28.83;;
25049;SDS011;13046;49.814;9.918;2023-12-04T05:26:20;53.53;;;30.20;;
25049;SDS011;13046;49.814;9.918;2023-12-04T05:28:46;49.72;;;28.75;;
25049;SDS011;13046;49.814;9.918;2023-12-04T05:31:12;46.42;;;27.23;;
25049;SDS011;13046;49.814;9.918;2023-12-04T05:33:38;56.88;;;31.15;;
25049;SDS011;13046;49.814;9.918;2023-12-04T05:36:04;46.97;;;31.58;;
25049;SDS011;13046;49.814;9.918;2023-12-04T05:38:31;58.80;;;34.33;;
25049;SDS011;13046;49.814;9.918;2023-12-04T05:40:58;58.92;;;34.15;;
25049;SDS011;13046;49.814;9.918;2023-12-04T05:43:24;55.00;;;31.92;;
25049;SDS011;13046;49.814;9.918;2023-12-04T05:45:50;51.25;;;30.65;;
25049;SDS011;13046;49.814;9.918;2023-12-04T05:48:16;59.03;;;37.17;;
25049;SDS011;13046;49.814;9.918;2023-12-04T05:50:43;58.00;;;35.88;;
25049;SDS011;13046;49.814;9.918;2023-12-04T05:53:09;50.80;;;32.15;;
25049;SDS011;13046;49.814;9.918;2023-12-04T05:55:35;55.28;;;31.33;;
25049;SDS011;13046;49.814;9.918;2023-12-04T05:58:01;51.95;;;31.23;;
25049;SDS011;13046;49.814;9.918;2023-12-04T06:00:27;50.05;;;30.35;;
25049;SDS011;13046;49.814;9.918;2023-12-04T06:02:53;51.95;;;31.13;;
25049;SDS011;13046;49.814;9.918;2023-12-04T06:05:19;46.00;;;28.63;;
25049;SDS011;13046;49.814;9.918;2023-12-04T06:07:45;46.65;;;27.50;;
25049;SDS011;13046;49.814;9.918;2023-12-04T06:10:11;47.85;;;29.42;;
25049;SDS011;13046;49.814;9.918;2023-12-04T06:12:37;54.10;;;30.23;;
25049;SDS011;13046;49.814;9.918;2023-12-04T06:15:04;57.60;;;32.40;;
25049;SDS011;13046;49.814;9.918;2023-12-04T06:17:30;54.13;;;33.20;;
25049;SDS011;13046;49.814;9.918;2023-12-04T06:19:56;76.68;;;41.95;;
25049;SDS011;13046;49.814;9.918;2023-12-04T06:22:22;53.10;;;30.95;;
25049;SDS011;13046;49.814;9.918;2023-12-04T06:24:48;52.38;;;30.23;;
25049;SDS011;13046;49.814;9.918;2023-12-04T06:27:15;50.13;;;28.52;;
25049;SDS011;13046;49.814;9.918;2023-12-04T06:29:43;45.83;;;29.13;;
25049;SDS011;13046;49.814;9.918;2023-12-04T06:32:09;45.50;;;27.98;;
25049;SDS011;13046;49.814;9.918;2023-12-04T06:34:36;50.35;;;30.85;;
25049;SDS011;13046;49.814;9.918;2023-12-04T06:37:02;48.47;;;30.17;;
25049;SDS011;13046;49.814;9.918;2023-12-04T06:39:32;51.78;;;32.28;;
25049;SDS011;13046;49.814;9.918;2023-12-04T06:41:59;48.20;;;30.00;;
25049;SDS011;13046;49.814;9.918;2023-12-04T06:44:25;53.83;;;32.13;;
25049;SDS011;13046;49.814;9.918;2023-12-04T06:46:52;52.28;;;30.00;;
25049;SDS011;13046;49.814;9.918;2023-12-04T06:49:18;52.00;;;31.02;;
25049;SDS011;13046;49.814;9.918;2023-12-04T06:51:44;45.42;;;28.15;;
25049;SDS011;13046;49.814;9.918;2023-12-04T06:54:11;48.03;;;30.33;;
25049;SDS011;13046;49.814;9.918;2023-12-04T06:56:38;53.17;;;30.40;;
25049;SDS011;13046;49.814;9.918;2023-12-04T06:59:04;47.70;;;28.80;;
25049;SDS011;13046;49.814;9.918;2023-12-04T07:01:30;45.42;;;26.70;;
25049;SDS011;13046;49.814;9.918;2023-12-04T07:03:57;42.42;;;24.55;;
25049;SDS011;13046;49.814;9.918;2023-12-04T07:06:23;46.60;;;27.02;;
25049;SDS011;13046;49.814;9.918;2023-12-04T07:08:49;44.35;;;25.80;;
25049;SDS011;13046;49.814;9.918;2023-12-04T07:11:15;47.22;;;27.48;;
25049;SDS011;13046;49.814;9.918;2023-12-04T07:13:41;42.15;;;25.58;;
25049;SDS011;13046;49.814;9.918;2023-12-04T07:16:07;48.90;;;30.08;;
25049;SDS011;13046;49.814;9.918;2023-12-04T07:18:34;53.65;;;25.73;;
25049;SDS011;13046;49.814;9.918;2023-12-04T07:21:00;54.25;;;27.55;;
25049;SDS011;13046;49.814;9.918;2023-12-04T07:23:26;45.72;;;29.02;;
25049;SDS011;13046;49.814;9.918;2023-12-04T07:25:52;42.65;;;26.40;;
25049;SDS011;13046;49.814;9.918;2023-12-04T07:28:18;39.17;;;23.77;;
25049;SDS011;13046;49.814;9.918;2023-12-04T07:30:44;43.10;;;25.25;;
25049;SDS011;13046;49.814;9.918;2023-12-04T07:33:11;40.83;;;23.67;;
25049;SDS011;13046;49.814;9.918;2023-12-04T07:35:37;36.67;;;24.30;;
25049;SDS011;13046;49.814;9.918;2023-12-04T07:38:04;41.67;;;25.40;;
25049;SDS011;13046;49.814;9.918;2023-12-04T07:40:30;41.45;;;26.67;;
25049;SDS011;13046;49.814;9.918;2023-12-04T07:42:57;48.67;;;27.67;;
25049;SDS011;13046;49.814;9.918;2023-12-04T07:45:23;47.10;;;27.13;;
25049;SDS011;13046;49.814;9.918;2023-12-04T07:47:49;38.92;;;26.33;;
25049;SDS011;13046;49.814;9.918;2023-12-04T07:50:16;36.97;;;25.25;;
25049;SDS011;13046;49.814;9.918;2023-12-04T07:52:42;44.17;;;25.60;;
25049;SDS011;13046;49.814;9.918;2023-12-04T07:55:08;39.83;;;23.80;;
25049;SDS011;13046;49.814;9.918;2023-12-04T07:57:34;37.90;;;25.08;;
25049;SDS011;13046;49.814;9.918;2023-12-04T08:00:00;49.90;;;28.85;;
25049;SDS011;13046;49.814;9.918;2023-12-04T08:02:29;36.80;;;25.88;;
25049;SDS011;13046;49.814;9.918;2023-12-04T08:04:56;40.92;;;24.13;;
25049;SDS011;13046;49.814;9.918;2023-12-04T08:07:22;40.90;;;25.80;;
25049;SDS011;13046;49.814;9.918;2023-12-04T08:09:48;41.70;;;25.42;;
25049;SDS011;13046;49.814;9.918;2023-12-04T08:12:14;38.75;;;26.70;;
25049;SDS011;13046;49.814;9.918;2023-12-04T08:14:40;43.33;;;26.60;;
25049;SDS011;13046;49.814;9.918;2023-12-04T08:17:06;43.90;;;26.92;;
25049;SDS011;13046;49.814;9.918;2023-12-04T08:19:32;43.90;;;28.10;;
25049;SDS011;13046;49.814;9.918;2023-12-04T08:21:59;49.95;;;30.38;;
25049;SDS011;13046;49.814;9.918;2023-12-04T08:24:25;42.08;;;24.98;;
25049;SDS011;13046;49.814;9.918;2023-12-04T08:26:51;39.38;;;24.42;;
25049;SDS011;13046;49.814;9.918;2023-12-04T08:29:17;38.80;;;25.27;;
25049;SDS011;13046;49.814;9.918;2023-12-04T08:31:43;45.20;;;26.60;;
25049;SDS011;13046;49.814;9.918;2023-12-04T08:34:09;39.90;;;25.30;;
25049;SDS011;13046;49.814;9.918;2023-12-04T08:36:35;41.17;;;25.80;;
25049;SDS011;13046;49.814;9.918;2023-12-04T08:39:01;43.20;;;27.50;;
25049;SDS011;13046;49.814;9.918;2023-12-04T08:41:29;41.95;;;26.67;;
25049;SDS011;13046;49.814;9.918;2023-12-04T08:43:55;42.60;;;27.90;;
25049;SDS011;13046;49.814;9.918;2023-12-04T08:46:21;37.40;;;23.00;;
25049;SDS011;13046;49.814;9.918;2023-12-04T08:48:47;35.80;;;24.30;;
25049;SDS011;13046;49.814;9.918;2023-12-04T08:51:17;41.17;;;26.90;;
25049;SDS011;13046;49.814;9.918;2023-12-04T08:53:43;40.03;;;24.95;;
25049;SDS011;13046;49.814;9.918;2023-12-04T08:56:09;39.38;;;23.75;;
25049;SDS011;13046;49.814;9.918;2023-12-04T08:58:36;36.25;;;22.52;;
25049;SDS011;13046;49.814;9.918;2023-12-04T09:01:02;36.13;;;21.63;;
25049;SDS011;13046;49.814;9.918;2023-12-04T09:03:29;38.15;;;24.10;;
25049;SDS011;13046;49.814;9.918;2023-12-04T09:05:56;34.25;;;21.92;;
25049;SDS011;13046;49.814;9.918;2023-12-04T09:08:23;40.63;;;23.70;;
25049;SDS011;13046;49.814;9.918;2023-12-04T09:10:51;34.28;;;23.63;;
25049;SDS011;13046;49.814;9.918;2023-12-04T09:13:17;35.47;;;22.85;;
25049;SDS011;13046;49.814;9.918;2023-12-04T09:15:43;31.50;;;20.70;;
25049;SDS011;13046;49.814;9.918;2023-12-04T09:18:09;30.98;;;20.70;;
25049;SDS011;13046;49.814;9.918;2023-12-04T09:20:35;31.70;;;22.08;;
25049;SDS011;13046;49.814;9.918;2023-12-04T09:23:02;30.90;;;21.63;;
25049;SDS011;13046;49.814;9.918;2023-12-04T09:25:28;28.33;;;20.02;;
25049;SDS011;13046;49.814;9.918;2023-12-04T09:27:54;26.98;;;18.10;;
25049;SDS011;13046;49.814;9.918;2023-12-04T09:30:20;31.15;;;19.70;;
25049;SDS011;13046;49.814;9.918;2023-12-04T09:32:46;33.00;;;20.95;;
25049;SDS011;13046;49.814;9.918;2023-12-04T09:35:12;31.15;;;20.75;;
25049;SDS011;13046;49.814;9.918;2023-12-04T09:37:38;31.40;;;21.42;;
25049;SDS011;13046;49.814;9.918;2023-12-04T09:40:04;33.17;;;21.42;;
25049;SDS011;13046;49.814;9.918;2023-12-04T09:42:31;34.40;;;23.05;;
25049;SDS011;13046;49.814;9.918;2023-12-04T09:44:58;34.63;;;21.42;;
25049;SDS011;13046;49.814;9.918;2023-12-04T09:47:24;31.58;;;21.17;;
25049;SDS011;13046;49.814;9.918;2023-12-04T09:49:52;34.45;;;23.27;;
25049;SDS011;13046;49.814;9.918;2023-12-04T09:52:19;35.70;;;23.80;;
25049;SDS011;13046;49.814;9.918;2023-12-04T09:54:45;35.25;;;21.77;;
25049;SDS011;13046;49.814;9.918;2023-12-04T09:57:11;31.45;;;21.30;;
25049;SDS011;13046;49.814;9.918;2023-12-04T09:59:38;34.08;;;22.48;;
25049;SDS011;13046;49.814;9.918;2023-12-04T10:02:04;29.73;;;19.85;;
25049;SDS011;13046;49.814;9.918;2023-12-04T10:04:31;35.15;;;24.58;;
25049;SDS011;13046;49.814;9.918;2023-12-04T10:06:59;30.08;;;19.73;;
25049;SDS011;13046;49.814;9.918;2023-12-04T10:09:25;31.90;;;19.42;;
25049;SDS011;13046;49.814;9.918;2023-12-04T10:11:51;37.80;;;22.77;;
25049;SDS011;13046;49.814;9.918;2023-12-04T10:14:18;32.15;;;21.60;;
25049;SDS011;13046;49.814;9.918;2023-12-04T10:16:45;32.80;;;20.02;;
25049;SDS011;13046;49.814;9.918;2023-12-04T10:19:25;32.10;;;21.65;;
25049;SDS011;13046;49.814;9.918;2023-12-04T10:21:52;32.25;;;24.00;;
25049;SDS011;13046;49.814;9.918;2023-12-04T10:26:53;26.38;;;17.60;;
25049;SDS011;13046;49.814;9.918;2023-12-04T10:29:19;29.45;;;19.98;;
25049;SDS011;13046;49.814;9.918;2023-12-04T10:31:45;32.33;;;20.73;;
25049;SDS011;13046;49.814;9.918;2023-12-04T10:34:15;28.40;;;18.40;;
25049;SDS011;13046;49.814;9.918;2023-12-04T10:36:41;26.23;;;18.88;;
25049;SDS011;13046;49.814;9.918;2023-12-04T10:39:07;29.33;;;19.63;;
25049;SDS011;13046;49.814;9.918;2023-12-04T10:41:35;30.30;;;18.23;;
25049;SDS011;13046;49.814;9.918;2023-12-04T10:44:01;26.05;;;17.40;;
25049;SDS011;13046;49.814;9.918;2023-12-04T10:46:27;26.55;;;18.38;;
25049;SDS011;13046;49.814;9.918;2023-12-04T10:48:54;25.00;;;17.23;;
25049;SDS011;13046;49.814;9.918;2023-12-04T10:51:23;24.77;;;17.83;;
25049;SDS011;13046;49.814;9.918;2023-12-04T10:53:49;26.10;;;16.42;;
25049;SDS011;13046;49.814;9.918;2023-12-04T10:56:19;25.95;;;18.08;;
25049;SDS011;13046;49.814;9.918;2023-12-04T10:58:49;25.77;;;17.60;;
25049;SDS011;13046;49.814;9.918;2023-12-04T11:01:16;25.67;;;16.48;;
25049;SDS011;13046;49.814;9.918;2023-12-04T11:03:49;22.48;;;16.75;;
25049;SDS011;13046;49.814;9.918;2023-12-04T11:06:18;26.00;;;15.95;;
25049;SDS011;13046;49.814;9.918;2023-12-04T11:08:46;28.23;;;17.58;;
25049;SDS011;13046;49.814;9.918;2023-12-04T11:11:25;23.13;;;15.73;;
25049;SDS011;13046;49.814;9.918;2023-12-04T11:13:53;23.60;;;17.38;;
25049;SDS011;13046;49.814;9.918;2023-12-04T11:19:06;27.17;;;19.33;;
25049;SDS011;13046;49.814;9.918;2023-12-04T11:21:37;29.45;;;19.10;;
25049;SDS011;13046;49.814;9.918;2023-12-04T11:24:05;25.40;;;17.70;;
25049;SDS011;13046;49.814;9.918;2023-12-04T11:26:31;58.50;;;29.77;;
25049;SDS011;13046;49.814;9.918;2023-12-04T11:28:57;71.20;;;34.75;;
25049;SDS011;13046;49.814;9.918;2023-12-04T11:31:24;33.30;;;21.02;;
25049;SDS011;13046;49.814;9.918;2023-12-04T11:33:51;25.63;;;17.70;;
25049;SDS011;13046;49.814;9.918;2023-12-04T11:36:17;24.70;;;16.63;;
25049;SDS011;13046;49.814;9.918;2023-12-04T11:38:46;21.48;;;16.15;;
25049;SDS011;13046;49.814;9.918;2023-12-04T11:43:42;21.65;;;14.75;;
25049;SDS011;13046;49.814;9.918;2023-12-04T11:46:09;32.95;;;20.88;;
25049;SDS011;13046;49.814;9.918;2023-12-04T11:48:38;24.95;;;16.98;;
25049;SDS011;13046;49.814;9.918;2023-12-04T11:51:07;21.67;;;15.95;;
25049;SDS011;13046;49.814;9.918;2023-12-04T11:53:37;24.10;;;15.55;;
25049;SDS011;13046;49.814;9.918;2023-12-04T11:56:10;26.10;;;16.42;;
25049;SDS011;13046;49.814;9.918;2023-12-04T11:58:43;23.58;;;15.32;;
25049;SDS011;13046;49.814;9.918;2023-12-04T12:01:09;25.13;;;14.93;;
25049;SDS011;13046;49.814;9.918;2023-12-04T12:03:36;27.10;;;16.42;;
25049;SDS011;13046;49.814;9.918;2023-12-04T12:06:03;21.60;;;14.30;;
25049;SDS011;13046;49.814;9.918;2023-12-04T12:08:29;24.73;;;15.52;;
25049;SDS011;13046;49.814;9.918;2023-12-04T12:10:56;20.73;;;14.88;;
25049;SDS011;13046;49.814;9.918;2023-12-04T12:13:22;20.50;;;15.63;;
25049;SDS011;13046;49.814;9.918;2023-12-04T12:15:51;22.77;;;17.05;;
25049;SDS011;13046;49.814;9.918;2023-12-04T12:18:18;23.30;;;15.00;;
25049;SDS011;13046;49.814;9.918;2023-12-04T12:20:44;27.88;;;17.63;;
25049;SDS011;13046;49.814;9.918;2023-12-04T12:23:10;26.73;;;17.42;;
25049;SDS011;13046;49.814;9.918;2023-12-04T12:25:36;26.48;;;19.02;;
25049;SDS011;13046;49.814;9.918;2023-12-04T12:28:03;39.80;;;27.33;;
25049;SDS011;13046;49.814;9.918;2023-12-04T12:30:30;36.70;;;21.90;;
25049;SDS011;13046;49.814;9.918;2023-12-04T12:32:56;44.50;;;29.67;;
25049;SDS011;13046;49.814;9.918;2023-12-04T12:35:22;24.02;;;16.52;;
25049;SDS011;13046;49.814;9.918;2023-12-04T12:37:50;23.92;;;18.02;;
25049;SDS011;13046;49.814;9.918;2023-12-04T12:40:20;31.88;;;21.83;;
25049;SDS011;13046;49.814;9.918;2023-12-04T12:42:46;25.80;;;18.33;;
25049;SDS011;13046;49.814;9.918;2023-12-04T12:45:14;24.50;;;18.58;;
25049;SDS011;13046;49.814;9.918;2023-12-04T12:47:40;25.67;;;17.73;;
25049;SDS011;13046;49.814;9.918;2023-12-04T12:50:08;25.38;;;18.33;;
25049;SDS011;13046;49.814;9.918;2023-12-04T12:52:38;26.90;;;18.00;;
25049;SDS011;13046;49.814;9.918;2023-12-04T12:55:04;30.35;;;19.58;;
25049;SDS011;13046;49.814;9.918;2023-12-04T12:57:31;26.50;;;18.73;;
25049;SDS011;13046;49.814;9.918;2023-12-04T12:59:57;25.80;;;18.10;;
25049;SDS011;13046;49.814;9.918;2023-12-04T13:02:23;30.23;;;20.00;;
25049;SDS011;13046;49.814;9.918;2023-12-04T13:04:49;24.48;;;16.60;;
25049;SDS011;13046;49.814;9.918;2023-12-04T13:07:16;31.05;;;20.30;;
25049;SDS011;13046;49.814;9.918;2023-12-04T13:09:43;22.02;;;15.80;;
25049;SDS011;13046;49.814;9.918;2023-12-04T13:12:10;27.08;;;17.55;;
25049;SDS011;13046;49.814;9.918;2023-12-04T13:14:36;25.40;;;17.73;;
25049;SDS011;13046;49.814;9.918;2023-12-04T13:17:02;29.60;;;21.35;;
25049;SDS011;13046;49.814;9.918;2023-12-04T13:19:29;28.27;;;18.65;;
25049;SDS011;13046;49.814;9.918;2023-12-04T13:21:56;27.23;;;17.58;;
25049;SDS011;13046;49.814;9.918;2023-12-04T13:24:23;24.77;;;16.52;;
25049;SDS011;13046;49.814;9.918;2023-12-04T13:26:50;22.60;;;15.13;;
25049;SDS011;13046;49.814;9.918;2023-12-04T13:29:16;26.33;;;18.77;;
25049;SDS011;13046;49.814;9.918;2023-12-04T13:31:42;27.00;;;18.83;;
25049;SDS011;13046;49.814;9.918;2023-12-04T13:34:08;26.45;;;18.35;;
25049;SDS011;13046;49.814;9.918;2023-12-04T13:36:36;27.80;;;19.65;;
25049;SDS011;13046;49.814;9.918;2023-12-04T13:39:02;29.23;;;17.67;;
25049;SDS011;13046;49.814;9.918;2023-12-04T13:41:42;23.20;;;16.25;;
25049;SDS011;13046;49.814;9.918;2023-12-04T13:44:27;28.27;;;20.88;;
25049;SDS011;13046;49.814;9.918;2023-12-04T13:46:53;26.02;;;17.92;;
25049;SDS011;13046;49.814;9.918;2023-12-04T13:49:19;25.88;;;16.35;;
25049;SDS011;13046;49.814;9.918;2023-12-04T13:51:45;26.63;;;16.52;;
25049;SDS011;13046;49.814;9.918;2023-12-04T13:54:14;22.13;;;16.70;;
25049;SDS011;13046;49.814;9.918;2023-12-04T13:56:49;34.35;;;19.42;;
25049;SDS011;13046;49.814;9.918;2023-12-04T13:59:22;28.40;;;16.60;;
25049;SDS011;13046;49.814;9.918;2023-12-04T14:01:49;22.77;;;16.02;;
25049;SDS011;13046;49.814;9.918;2023-12-04T14:04:16;23.38;;;16.25;;
25049;SDS011;13046;49.814;9.918;2023-12-04T14:06:42;25.70;;;16.45;;
25049;SDS011;13046;49.814;9.918;2023-12-04T14:09:09;24.15;;;16.25;;
25049;SDS011;13046;49.814;9.918;2023-12-04T14:11:39;25.75;;;18.25;;
25049;SDS011;13046;49.814;9.918;2023-12-04T14:14:06;27.10;;;17.40;;
25049;SDS011;13046;49.814;9.918;2023-12-04T14:16:32;23.35;;;15.95;;
25049;SDS011;13046;49.814;9.918;2023-12-04T14:18:58;22.98;;;15.98;;
25049;SDS011;13046;49.814;9.918;2023-12-04T14:21:25;25.92;;;17.63;;
25049;SDS011;13046;49.814;9.918;2023-12-04T14:23:51;25.70;;;18.15;;
25049;SDS011;13046;49.814;9.918;2023-12-04T14:26:17;24.23;;;16.88;;
25049;SDS011;13046;49.814;9.918;2023-12-04T14:28:44;24.98;;;17.98;;